sensor_id;sensor_type;location;lat;lon;timestamp;temperature;humidity
37242;DHT22;23135;51.078;12.108;2023-02-15T00:00:12;1.10;99.90
37242;DHT22;23135;51.078;12.108;2023-02-15T00:02:38;1.10;99.90
37242;DHT22;23135;51.078;12.108;2023-02-15T00:05:05;1.00;99.90
37242;DHT22;23135;51.078;12.108;2023-02-15T00:07:30;1.00;99.90
37242;DHT22;23135;51.078;12.108;2023-02-15T00:09:56;0.90;99.90
37242;DHT22;23135;51.078;12.108;2023-02-15T00:12:21;0.90;99.90
37242;DHT22;23135;51.078;12.108;2023-02-15T00:14:47;0.90;99.90
37242;DHT22;23135;51.078;12.108;2023-02-15T00:17:13;0.70;99.90
37242;DHT22;23135;51.078;12.108;2023-02-15T00:19:39;0.70;99.90
37242;DHT22;23135;51.078;12.108;2023-02-15T00:22:05;0.80;99.90
37242;DHT22;23135;51.078;12.108;2023-02-15T00:24:31;0.90;99.90
37242;DHT22;23135;51.078;12.108;2023-02-15T00:26:57;0.90;99.90
37242;DHT22;23135;51.078;12.108;2023-02-15T00:29:22;1.10;99.90
37242;DHT22;23135;51.078;12.108;2023-02-15T00:31:48;1.10;99.90
37242;DHT22;23135;51.078;12.108;2023-02-15T00:34:17;1.20;99.90
37242;DHT22;23135;51.078;12.108;2023-02-15T00:36:44;1.40;99.90
37242;DHT22;23135;51.078;12.108;2023-02-15T00:39:10;1.40;99.90
37242;DHT22;23135;51.078;12.108;2023-02-15T00:41:36;1.40;99.90
37242;DHT22;23135;51.078;12.108;2023-02-15T00:44:02;1.30;99.90
37242;DHT22;23135;51.078;12.108;2023-02-15T00:46:27;1.30;99.90
37242;DHT22;23135;51.078;12.108;2023-02-15T00:48:53;1.30;99.90
37242;DHT22;23135;51.078;12.108;2023-02-15T00:51:18;1.30;99.90
37242;DHT22;23135;51.078;12.108;2023-02-15T00:53:46;1.40;99.90
37242;DHT22;23135;51.078;12.108;2023-02-15T00:56:11;1.40;99.90
37242;DHT22;23135;51.078;12.108;2023-02-15T00:58:37;1.30;99.90
37242;DHT22;23135;51.078;12.108;2023-02-15T01:01:09;1.30;99.90
37242;DHT22;23135;51.078;12.108;2023-02-15T01:03:35;1.30;99.90
37242;DHT22;23135;51.078;12.108;2023-02-15T01:06:00;1.30;99.90
37242;DHT22;23135;51.078;12.108;2023-02-15T01:08:27;1.30;99.90
37242;DHT22;23135;51.078;12.108;2023-02-15T01:10:52;1.40;99.90
37242;DHT22;23135;51.078;12.108;2023-02-15T01:13:18;1.40;99.90
37242;DHT22;23135;51.078;12.108;2023-02-15T01:15:44;1.30;99.90
37242;DHT22;23135;51.078;12.108;2023-02-15T01:18:10;1.20;99.90
37242;DHT22;23135;51.078;12.108;2023-02-15T01:20:38;1.20;99.90
37242;DHT22;23135;51.078;12.108;2023-02-15T01:23:05;1.20;99.90
37242;DHT22;23135;51.078;12.108;2023-02-15T01:25:33;1.20;99.90
37242;DHT22;23135;51.078;12.108;2023-02-15T01:27:59;1.20;99.90
37242;DHT22;23135;51.078;12.108;2023-02-15T01:30:24;1.20;99.90
37242;DHT22;23135;51.078;12.108;2023-02-15T01:32:50;1.20;99.90
37242;DHT22;23135;51.078;12.108;2023-02-15T01:35:16;1.10;99.90
37242;DHT22;23135;51.078;12.108;2023-02-15T01:37:41;1.10;99.90
37242;DHT22;23135;51.078;12.108;2023-02-15T01:40:11;1.10;99.90
37242;DHT22;23135;51.078;12.108;2023-02-15T01:42:37;1.10;99.90
37242;DHT22;23135;51.078;12.108;2023-02-15T01:45:27;1.00;99.90
37242;DHT22;23135;51.078;12.108;2023-02-15T01:50:39;1.00;99.90
37242;DHT22;23135;51.078;12.108;2023-02-15T01:53:09;1.00;99.90
37242;DHT22;23135;51.078;12.108;2023-02-15T01:55:40;0.90;99.90
37242;DHT22;23135;51.078;12.108;2023-02-15T01:58:07;0.90;99.90
37242;DHT22;23135;51.078;12.108;2023-02-15T02:00:34;0.90;99.90
37242;DHT22;23135;51.078;12.108;2023-02-15T02:03:01;0.80;99.90
37242;DHT22;23135;51.078;12.108;2023-02-15T02:05:28;0.70;99.90
37242;DHT22;23135;51.078;12.108;2023-02-15T02:07:57;0.70;99.90
37242;DHT22;23135;51.078;12.108;2023-02-15T02:10:24;0.60;99.90
37242;DHT22;23135;51.078;12.108;2023-02-15T02:12:54;0.60;99.90
37242;DHT22;23135;51.078;12.108;2023-02-15T02:15:27;0.60;99.90
37242;DHT22;23135;51.078;12.108;2023-02-15T02:21:14;0.60;99.90
37242;DHT22;23135;51.078;12.108;2023-02-15T02:29:32;0.80;99.90
37242;DHT22;23135;51.078;12.108;2023-02-15T02:34:55;0.80;99.90
37242;DHT22;23135;51.078;12.108;2023-02-15T02:37:35;0.90;99.90
37242;DHT22;23135;51.078;12.108;2023-02-15T02:42:43;0.90;99.90
37242;DHT22;23135;51.078;12.108;2023-02-15T02:48:00;0.90;99.90
37242;DHT22;23135;51.078;12.108;2023-02-15T02:50:30;0.90;99.90
37242;DHT22;23135;51.078;12.108;2023-02-15T02:52:57;0.90;99.90
37242;DHT22;23135;51.078;12.108;2023-02-15T02:55:48;1.00;99.90
37242;DHT22;23135;51.078;12.108;2023-02-15T03:01:12;0.90;99.90
37242;DHT22;23135;51.078;12.108;2023-02-15T03:03:40;0.90;99.90
37242;DHT22;23135;51.078;12.108;2023-02-15T03:06:11;0.80;99.90
37242;DHT22;23135;51.078;12.108;2023-02-15T03:08:43;0.60;99.90
37242;DHT22;23135;51.078;12.108;2023-02-15T03:11:11;0.50;99.90
37242;DHT22;23135;51.078;12.108;2023-02-15T03:13:37;0.50;99.90
37242;DHT22;23135;51.078;12.108;2023-02-15T03:16:05;0.50;99.90
37242;DHT22;23135;51.078;12.108;2023-02-15T03:21:33;0.50;99.90
37242;DHT22;23135;51.078;12.108;2023-02-15T03:24:06;0.50;99.90
37242;DHT22;23135;51.078;12.108;2023-02-15T03:26:34;0.40;99.90
37242;DHT22;23135;51.078;12.108;2023-02-15T03:29:01;0.40;99.90
37242;DHT22;23135;51.078;12.108;2023-02-15T03:31:30;0.40;99.90
37242;DHT22;23135;51.078;12.108;2023-02-15T03:34:00;0.30;99.90
37242;DHT22;23135;51.078;12.108;2023-02-15T03:36:44;0.20;99.90
37242;DHT22;23135;51.078;12.108;2023-02-15T03:39:20;0.20;99.90
37242;DHT22;23135;51.078;12.108;2023-02-15T03:41:58;0.20;99.90
37242;DHT22;23135;51.078;12.108;2023-02-15T03:44:31;0.20;99.90
37242;DHT22;23135;51.078;12.108;2023-02-15T03:47:13;0.20;99.90
37242;DHT22;23135;51.078;12.108;2023-02-15T03:49:55;0.20;99.90
37242;DHT22;23135;51.078;12.108;2023-02-15T03:52:25;0.10;99.90
37242;DHT22;23135;51.078;12.108;2023-02-15T03:54:52;0.00;99.90
37242;DHT22;23135;51.078;12.108;2023-02-15T03:57:26;-0.10;99.90
37242;DHT22;23135;51.078;12.108;2023-02-15T04:00:19;-0.10;99.90
37242;DHT22;23135;51.078;12.108;2023-02-15T04:05:42;-0.10;99.90
37242;DHT22;23135;51.078;12.108;2023-02-15T04:08:08;-0.20;99.90
37242;DHT22;23135;51.078;12.108;2023-02-15T04:10:34;-0.20;99.90
37242;DHT22;23135;51.078;12.108;2023-02-15T04:13:23;-0.20;99.90
37242;DHT22;23135;51.078;12.108;2023-02-15T04:15:49;-0.30;99.90
37242;DHT22;23135;51.078;12.108;2023-02-15T04:21:19;-0.40;99.90
37242;DHT22;23135;51.078;12.108;2023-02-15T04:24:04;-0.40;99.90
37242;DHT22;23135;51.078;12.108;2023-02-15T04:26:48;-0.30;99.90
37242;DHT22;23135;51.078;12.108;2023-02-15T04:29:15;-0.30;99.90
37242;DHT22;23135;51.078;12.108;2023-02-15T04:31:41;-0.30;99.90
37242;DHT22;23135;51.078;12.108;2023-02-15T04:34:08;-0.30;99.90
37242;DHT22;23135;51.078;12.108;2023-02-15T04:36:34;-0.30;99.90
37242;DHT22;23135;51.078;12.108;2023-02-15T04:38:59;-0.20;99.90
37242;DHT22;23135;51.078;12.108;2023-02-15T04:41:25;-0.20;99.90
37242;DHT22;23135;51.078;12.108;2023-02-15T04:43:50;-0.20;99.90
37242;DHT22;23135;51.078;12.108;2023-02-15T04:46:16;-0.20;99.90
37242;DHT22;23135;51.078;12.108;2023-02-15T04:48:41;-0.20;99.90
37242;DHT22;23135;51.078;12.108;2023-02-15T04:51:07;-0.20;99.90
37242;DHT22;23135;51.078;12.108;2023-02-15T04:53:33;-0.10;99.90
37242;DHT22;23135;51.078;12.108;2023-02-15T04:55:59;-0.20;99.90
37242;DHT22;23135;51.078;12.108;2023-02-15T04:58:24;-0.20;99.90
37242;DHT22;23135;51.078;12.108;2023-02-15T05:00:50;-0.20;99.90
37242;DHT22;23135;51.078;12.108;2023-02-15T05:03:15;-0.20;99.90
37242;DHT22;23135;51.078;12.108;2023-02-15T05:05:41;-0.20;99.90
37242;DHT22;23135;51.078;12.108;2023-02-15T05:08:07;-0.20;99.90
37242;DHT22;23135;51.078;12.108;2023-02-15T05:10:32;-0.10;99.90
37242;DHT22;23135;51.078;12.108;2023-02-15T05:12:58;0.00;99.90
37242;DHT22;23135;51.078;12.108;2023-02-15T05:15:23;0.00;99.90
37242;DHT22;23135;51.078;12.108;2023-02-15T05:17:49;0.00;99.90
37242;DHT22;23135;51.078;12.108;2023-02-15T05:20:15;0.00;99.90
37242;DHT22;23135;51.078;12.108;2023-02-15T05:22:41;-0.10;99.90
37242;DHT22;23135;51.078;12.108;2023-02-15T05:25:08;-0.10;99.90
37242;DHT22;23135;51.078;12.108;2023-02-15T05:27:53;-0.10;99.90
37242;DHT22;23135;51.078;12.108;2023-02-15T05:30:37;-0.20;99.90
37242;DHT22;23135;51.078;12.108;2023-02-15T05:33:02;-0.20;99.90
37242;DHT22;23135;51.078;12.108;2023-02-15T05:35:28;-0.20;99.90
37242;DHT22;23135;51.078;12.108;2023-02-15T05:37:53;-0.20;99.90
37242;DHT22;23135;51.078;12.108;2023-02-15T05:40:19;-0.20;99.90
37242;DHT22;23135;51.078;12.108;2023-02-15T05:42:45;-0.20;99.90
37242;DHT22;23135;51.078;12.108;2023-02-15T05:45:10;-0.10;99.90
37242;DHT22;23135;51.078;12.108;2023-02-15T05:47:36;-0.10;99.90
37242;DHT22;23135;51.078;12.108;2023-02-15T05:50:01;-0.10;99.90
37242;DHT22;23135;51.078;12.108;2023-02-15T05:52:27;-0.10;99.90
37242;DHT22;23135;51.078;12.108;2023-02-15T05:54:52;-0.10;99.90
37242;DHT22;23135;51.078;12.108;2023-02-15T05:57:18;-0.10;99.90
37242;DHT22;23135;51.078;12.108;2023-02-15T05:59:43;-0.10;99.90
37242;DHT22;23135;51.078;12.108;2023-02-15T06:02:09;-0.10;99.90
37242;DHT22;23135;51.078;12.108;2023-02-15T06:04:34;-0.20;99.90
37242;DHT22;23135;51.078;12.108;2023-02-15T06:07:00;-0.20;99.90
37242;DHT22;23135;51.078;12.108;2023-02-15T06:09:27;-0.20;99.90
37242;DHT22;23135;51.078;12.108;2023-02-15T06:11:52;-0.30;99.90
37242;DHT22;23135;51.078;12.108;2023-02-15T06:14:18;-0.20;99.90
37242;DHT22;23135;51.078;12.108;2023-02-15T06:16:43;-0.10;99.90
37242;DHT22;23135;51.078;12.108;2023-02-15T06:19:09;-0.10;99.90
37242;DHT22;23135;51.078;12.108;2023-02-15T06:21:34;-0.10;99.90
37242;DHT22;23135;51.078;12.108;2023-02-15T06:24:00;-0.10;99.90
37242;DHT22;23135;51.078;12.108;2023-02-15T06:26:26;-0.20;99.90
37242;DHT22;23135;51.078;12.108;2023-02-15T06:28:51;-0.20;99.90
37242;DHT22;23135;51.078;12.108;2023-02-15T06:31:17;-0.20;99.90
37242;DHT22;23135;51.078;12.108;2023-02-15T06:33:42;-0.30;99.90
37242;DHT22;23135;51.078;12.108;2023-02-15T06:36:08;-0.30;99.90
37242;DHT22;23135;51.078;12.108;2023-02-15T06:38:34;-0.30;99.90
37242;DHT22;23135;51.078;12.108;2023-02-15T06:40:59;-0.30;99.90
37242;DHT22;23135;51.078;12.108;2023-02-15T06:43:25;-0.30;99.90
37242;DHT22;23135;51.078;12.108;2023-02-15T06:45:50;-0.30;99.90
37242;DHT22;23135;51.078;12.108;2023-02-15T06:48:16;-0.30;99.90
37242;DHT22;23135;51.078;12.108;2023-02-15T06:50:42;-0.20;99.90
37242;DHT22;23135;51.078;12.108;2023-02-15T06:53:07;-0.20;99.90
37242;DHT22;23135;51.078;12.108;2023-02-15T06:55:33;-0.10;99.90
37242;DHT22;23135;51.078;12.108;2023-02-15T06:57:58;-0.10;99.90
37242;DHT22;23135;51.078;12.108;2023-02-15T07:00:24;0.00;99.90
37242;DHT22;23135;51.078;12.108;2023-02-15T07:02:54;0.00;99.90
37242;DHT22;23135;51.078;12.108;2023-02-15T07:05:21;0.10;99.90
37242;DHT22;23135;51.078;12.108;2023-02-15T07:07:47;0.20;99.90
37242;DHT22;23135;51.078;12.108;2023-02-15T07:10:12;0.20;99.90
37242;DHT22;23135;51.078;12.108;2023-02-15T07:12:38;0.20;99.90
37242;DHT22;23135;51.078;12.108;2023-02-15T07:15:07;0.30;99.90
37242;DHT22;23135;51.078;12.108;2023-02-15T07:17:36;0.30;99.90
37242;DHT22;23135;51.078;12.108;2023-02-15T07:20:06;0.30;99.90
37242;DHT22;23135;51.078;12.108;2023-02-15T07:22:33;0.40;99.90
37242;DHT22;23135;51.078;12.108;2023-02-15T07:25:02;0.40;99.90
37242;DHT22;23135;51.078;12.108;2023-02-15T07:27:27;0.50;99.90
37242;DHT22;23135;51.078;12.108;2023-02-15T07:29:53;0.50;99.90
37242;DHT22;23135;51.078;12.108;2023-02-15T07:32:18;0.60;99.90
37242;DHT22;23135;51.078;12.108;2023-02-15T07:34:44;0.60;99.90
37242;DHT22;23135;51.078;12.108;2023-02-15T07:37:09;0.70;99.90
37242;DHT22;23135;51.078;12.108;2023-02-15T07:39:35;0.70;99.90
37242;DHT22;23135;51.078;12.108;2023-02-15T07:42:00;0.80;99.90
37242;DHT22;23135;51.078;12.108;2023-02-15T07:44:26;0.90;99.90
37242;DHT22;23135;51.078;12.108;2023-02-15T07:46:52;1.00;99.90
37242;DHT22;23135;51.078;12.108;2023-02-15T07:49:17;1.00;99.90
37242;DHT22;23135;51.078;12.108;2023-02-15T07:51:43;1.10;99.90
37242;DHT22;23135;51.078;12.108;2023-02-15T07:54:08;1.20;99.90
37242;DHT22;23135;51.078;12.108;2023-02-15T07:56:36;1.30;99.90
37242;DHT22;23135;51.078;12.108;2023-02-15T07:59:02;1.30;99.90
37242;DHT22;23135;51.078;12.108;2023-02-15T08:01:32;1.40;99.90
37242;DHT22;23135;51.078;12.108;2023-02-15T08:03:59;1.50;99.90
37242;DHT22;23135;51.078;12.108;2023-02-15T08:06:26;1.40;99.90
37242;DHT22;23135;51.078;12.108;2023-02-15T08:08:52;1.50;99.90
37242;DHT22;23135;51.078;12.108;2023-02-15T08:11:26;1.50;99.90
37242;DHT22;23135;51.078;12.108;2023-02-15T08:14:12;1.60;99.90
37242;DHT22;23135;51.078;12.108;2023-02-15T08:16:48;1.70;99.90
37242;DHT22;23135;51.078;12.108;2023-02-15T08:19:29;1.90;99.90
37242;DHT22;23135;51.078;12.108;2023-02-15T08:22:00;2.40;99.90
37242;DHT22;23135;51.078;12.108;2023-02-15T08:24:28;2.70;99.90
37242;DHT22;23135;51.078;12.108;2023-02-15T08:26:54;2.90;99.90
37242;DHT22;23135;51.078;12.108;2023-02-15T08:29:23;3.10;99.90
37242;DHT22;23135;51.078;12.108;2023-02-15T08:31:50;3.20;99.90
37242;DHT22;23135;51.078;12.108;2023-02-15T08:34:18;3.30;99.90
37242;DHT22;23135;51.078;12.108;2023-02-15T08:36:44;3.40;99.90
37242;DHT22;23135;51.078;12.108;2023-02-15T08:39:14;3.50;99.90
37242;DHT22;23135;51.078;12.108;2023-02-15T08:41:43;3.40;99.90
37242;DHT22;23135;51.078;12.108;2023-02-15T08:44:09;3.40;99.90
37242;DHT22;23135;51.078;12.108;2023-02-15T08:46:38;3.50;99.90
37242;DHT22;23135;51.078;12.108;2023-02-15T08:49:04;3.70;99.90
37242;DHT22;23135;51.078;12.108;2023-02-15T08:51:32;3.80;99.90
37242;DHT22;23135;51.078;12.108;2023-02-15T08:54:00;3.90;99.90
37242;DHT22;23135;51.078;12.108;2023-02-15T08:56:28;4.10;99.90
37242;DHT22;23135;51.078;12.108;2023-02-15T08:58:55;4.10;99.90
37242;DHT22;23135;51.078;12.108;2023-02-15T09:01:24;4.20;99.90
37242;DHT22;23135;51.078;12.108;2023-02-15T09:03:54;4.30;99.90
37242;DHT22;23135;51.078;12.108;2023-02-15T09:06:21;4.40;99.90
37242;DHT22;23135;51.078;12.108;2023-02-15T09:08:47;4.60;99.90
37242;DHT22;23135;51.078;12.108;2023-02-15T09:11:19;4.70;99.90
37242;DHT22;23135;51.078;12.108;2023-02-15T09:14:00;4.80;99.90
37242;DHT22;23135;51.078;12.108;2023-02-15T09:16:28;4.90;99.90
37242;DHT22;23135;51.078;12.108;2023-02-15T09:18:55;5.10;99.90
37242;DHT22;23135;51.078;12.108;2023-02-15T09:21:23;5.30;99.90
37242;DHT22;23135;51.078;12.108;2023-02-15T09:23:51;5.50;99.90
37242;DHT22;23135;51.078;12.108;2023-02-15T09:26:19;5.70;99.90
37242;DHT22;23135;51.078;12.108;2023-02-15T09:28:46;5.80;99.90
37242;DHT22;23135;51.078;12.108;2023-02-15T09:31:20;6.00;99.90
37242;DHT22;23135;51.078;12.108;2023-02-15T09:33:47;6.20;99.90
37242;DHT22;23135;51.078;12.108;2023-02-15T09:36:19;6.40;99.90
37242;DHT22;23135;51.078;12.108;2023-02-15T09:38:46;6.50;99.90
37242;DHT22;23135;51.078;12.108;2023-02-15T09:55:14;7.10;99.90
37242;DHT22;23135;51.078;12.108;2023-02-15T10:03:53;7.30;99.90
37242;DHT22;23135;51.078;12.108;2023-02-15T10:17:35;7.80;99.90
37242;DHT22;23135;51.078;12.108;2023-02-15T10:20:32;7.90;99.90
37242;DHT22;23135;51.078;12.108;2023-02-15T10:23:17;8.10;99.90
37242;DHT22;23135;51.078;12.108;2023-02-15T10:33:43;8.70;99.90
37242;DHT22;23135;51.078;12.108;2023-02-15T10:36:36;8.80;99.90
37242;DHT22;23135;51.078;12.108;2023-02-15T10:44:41;9.40;99.90
37242;DHT22;23135;51.078;12.108;2023-02-15T10:47:30;9.60;99.90
37242;DHT22;23135;51.078;12.108;2023-02-15T10:50:06;9.70;99.90
37242;DHT22;23135;51.078;12.108;2023-02-15T10:52:42;9.90;99.90
37242;DHT22;23135;51.078;12.108;2023-02-15T11:03:50;10.50;99.90
37242;DHT22;23135;51.078;12.108;2023-02-15T11:06:19;10.60;99.90
37242;DHT22;23135;51.078;12.108;2023-02-15T11:08:54;10.70;99.90
37242;DHT22;23135;51.078;12.108;2023-02-15T11:11:24;10.60;99.90
37242;DHT22;23135;51.078;12.108;2023-02-15T11:13:57;10.90;99.90
37242;DHT22;23135;51.078;12.108;2023-02-15T11:16:31;11.00;99.90
37242;DHT22;23135;51.078;12.108;2023-02-15T11:19:14;11.20;99.90
37242;DHT22;23135;51.078;12.108;2023-02-15T11:21:46;11.20;99.90
37242;DHT22;23135;51.078;12.108;2023-02-15T11:24:17;11.20;99.90
37242;DHT22;23135;51.078;12.108;2023-02-15T11:26:49;11.30;99.90
37242;DHT22;23135;51.078;12.108;2023-02-15T11:34:37;11.70;99.30
37242;DHT22;23135;51.078;12.108;2023-02-15T11:37:08;11.70;99.90
37242;DHT22;23135;51.078;12.108;2023-02-15T11:39:35;11.80;99.90
37242;DHT22;23135;51.078;12.108;2023-02-15T11:42:21;11.80;99.20
37242;DHT22;23135;51.078;12.108;2023-02-15T11:45:22;11.80;98.20
37242;DHT22;23135;51.078;12.108;2023-02-15T11:47:49;12.00;98.00
37242;DHT22;23135;51.078;12.108;2023-02-15T11:50:17;12.10;98.70
37242;DHT22;23135;51.078;12.108;2023-02-15T11:52:48;12.10;97.20
37242;DHT22;23135;51.078;12.108;2023-02-15T11:55:18;12.10;98.30
37242;DHT22;23135;51.078;12.108;2023-02-15T11:58:04;12.30;98.00
37242;DHT22;23135;51.078;12.108;2023-02-15T12:00:38;12.40;97.20
37242;DHT22;23135;51.078;12.108;2023-02-15T12:05:53;12.50;97.40
37242;DHT22;23135;51.078;12.108;2023-02-15T12:08:21;12.70;98.30
37242;DHT22;23135;51.078;12.108;2023-02-15T12:11:02;12.70;97.80
37242;DHT22;23135;51.078;12.108;2023-02-15T12:13:29;12.90;98.10
37242;DHT22;23135;51.078;12.108;2023-02-15T12:15:57;13.10;97.20
37242;DHT22;23135;51.078;12.108;2023-02-15T12:20:52;13.40;95.60
37242;DHT22;23135;51.078;12.108;2023-02-15T12:23:18;13.50;97.20
37242;DHT22;23135;51.078;12.108;2023-02-15T12:25:56;13.70;97.40
37242;DHT22;23135;51.078;12.108;2023-02-15T12:30:47;14.10;97.30
37242;DHT22;23135;51.078;12.108;2023-02-15T12:33:35;14.10;94.30
37242;DHT22;23135;51.078;12.108;2023-02-15T12:36:22;14.20;94.50
37242;DHT22;23135;51.078;12.108;2023-02-15T12:39:16;14.10;92.70
37242;DHT22;23135;51.078;12.108;2023-02-15T12:42:01;14.30;94.00
37242;DHT22;23135;51.078;12.108;2023-02-15T12:44:32;14.40;93.70
37242;DHT22;23135;51.078;12.108;2023-02-15T12:49:34;14.70;92.40
37242;DHT22;23135;51.078;12.108;2023-02-15T12:54:46;14.90;92.60
37242;DHT22;23135;51.078;12.108;2023-02-15T12:59:54;15.20;91.80
37242;DHT22;23135;51.078;12.108;2023-02-15T13:02:30;15.30;91.50
37242;DHT22;23135;51.078;12.108;2023-02-15T13:04:57;15.20;91.10
37242;DHT22;23135;51.078;12.108;2023-02-15T13:07:30;15.10;91.60
37242;DHT22;23135;51.078;12.108;2023-02-15T13:09:57;15.10;90.90
37242;DHT22;23135;51.078;12.108;2023-02-15T13:12:25;15.30;90.00
37242;DHT22;23135;51.078;12.108;2023-02-15T13:14:54;15.30;89.60
37242;DHT22;23135;51.078;12.108;2023-02-15T13:17:31;15.30;88.60
37242;DHT22;23135;51.078;12.108;2023-02-15T13:20:04;15.80;90.00
37242;DHT22;23135;51.078;12.108;2023-02-15T13:22:43;16.00;87.30
37242;DHT22;23135;51.078;12.108;2023-02-15T13:25:19;16.10;88.00
37242;DHT22;23135;51.078;12.108;2023-02-15T13:27:46;15.70;87.60
37242;DHT22;23135;51.078;12.108;2023-02-15T13:30:35;15.80;85.90
37242;DHT22;23135;51.078;12.108;2023-02-15T13:33:29;15.70;87.80
37242;DHT22;23135;51.078;12.108;2023-02-15T13:38:50;16.20;88.10
37242;DHT22;23135;51.078;12.108;2023-02-15T13:41:27;16.20;83.60
37242;DHT22;23135;51.078;12.108;2023-02-15T13:44:15;16.30;82.90
37242;DHT22;23135;51.078;12.108;2023-02-15T13:46:57;16.30;84.80
37242;DHT22;23135;51.078;12.108;2023-02-15T13:50:14;16.40;85.80
37242;DHT22;23135;51.078;12.108;2023-02-15T13:52:44;16.30;85.10
37242;DHT22;23135;51.078;12.108;2023-02-15T13:58:17;16.40;79.20
37242;DHT22;23135;51.078;12.108;2023-02-15T14:01:08;16.50;81.70
37242;DHT22;23135;51.078;12.108;2023-02-15T14:03:43;16.70;84.30
37242;DHT22;23135;51.078;12.108;2023-02-15T14:12:00;16.80;80.50
37242;DHT22;23135;51.078;12.108;2023-02-15T14:29:41;17.40;79.80
37242;DHT22;23135;51.078;12.108;2023-02-15T14:32:33;17.30;78.40
37242;DHT22;23135;51.078;12.108;2023-02-15T14:35:05;17.20;78.50
37242;DHT22;23135;51.078;12.108;2023-02-15T14:38:00;17.40;79.20
37242;DHT22;23135;51.078;12.108;2023-02-15T14:41:02;17.40;76.70
37242;DHT22;23135;51.078;12.108;2023-02-15T14:49:25;17.20;76.40
37242;DHT22;23135;51.078;12.108;2023-02-15T14:59:25;17.60;77.50
37242;DHT22;23135;51.078;12.108;2023-02-15T15:01:56;17.40;76.40
37242;DHT22;23135;51.078;12.108;2023-02-15T15:04:41;17.10;76.40
37242;DHT22;23135;51.078;12.108;2023-02-15T15:07:24;17.00;76.20
37242;DHT22;23135;51.078;12.108;2023-02-15T15:11:01;16.80;76.70
37242;DHT22;23135;51.078;12.108;2023-02-15T15:12:56;16.80;76.50
37242;DHT22;23135;51.078;12.108;2023-02-15T15:18:09;16.70;77.70
37242;DHT22;23135;51.078;12.108;2023-02-15T15:20:42;16.50;76.10
37242;DHT22;23135;51.078;12.108;2023-02-15T15:31:14;15.10;80.90
37242;DHT22;23135;51.078;12.108;2023-02-15T15:37:27;14.10;82.10
37242;DHT22;23135;51.078;12.108;2023-02-15T15:40:24;13.60;82.70
37242;DHT22;23135;51.078;12.108;2023-02-15T15:48:42;12.70;86.30
37242;DHT22;23135;51.078;12.108;2023-02-15T15:53:45;12.20;88.80
37242;DHT22;23135;51.078;12.108;2023-02-15T15:56:22;12.10;89.90
37242;DHT22;23135;51.078;12.108;2023-02-15T15:59:15;11.90;90.60
37242;DHT22;23135;51.078;12.108;2023-02-15T16:01:43;11.70;91.10
37242;DHT22;23135;51.078;12.108;2023-02-15T16:04:22;11.50;91.60
37242;DHT22;23135;51.078;12.108;2023-02-15T16:06:48;11.20;92.10
37242;DHT22;23135;51.078;12.108;2023-02-15T16:09:18;11.00;92.60
37242;DHT22;23135;51.078;12.108;2023-02-15T16:11:50;10.80;92.20
37242;DHT22;23135;51.078;12.108;2023-02-15T16:14:40;10.80;92.00
37242;DHT22;23135;51.078;12.108;2023-02-15T16:17:12;10.70;92.50
37242;DHT22;23135;51.078;12.108;2023-02-15T16:19:41;10.60;92.80
37242;DHT22;23135;51.078;12.108;2023-02-15T16:22:15;10.60;93.30
37242;DHT22;23135;51.078;12.108;2023-02-15T16:27:42;10.20;96.00
37242;DHT22;23135;51.078;12.108;2023-02-15T16:30:26;10.00;98.40
37242;DHT22;23135;51.078;12.108;2023-02-15T16:32:55;9.80;99.90
37242;DHT22;23135;51.078;12.108;2023-02-15T16:35:22;9.60;99.90
37242;DHT22;23135;51.078;12.108;2023-02-15T16:37:48;9.50;99.90
37242;DHT22;23135;51.078;12.108;2023-02-15T16:42:49;9.20;99.90
37242;DHT22;23135;51.078;12.108;2023-02-15T16:45:18;9.00;99.90
37242;DHT22;23135;51.078;12.108;2023-02-15T16:47:47;8.80;99.90
37242;DHT22;23135;51.078;12.108;2023-02-15T16:50:21;8.50;99.90
37242;DHT22;23135;51.078;12.108;2023-02-15T16:52:47;8.20;99.90
37242;DHT22;23135;51.078;12.108;2023-02-15T16:55:23;8.00;99.90
37242;DHT22;23135;51.078;12.108;2023-02-15T16:57:51;7.90;99.90
37242;DHT22;23135;51.078;12.108;2023-02-15T17:00:19;8.00;99.90
37242;DHT22;23135;51.078;12.108;2023-02-15T17:03:32;8.00;99.90
37242;DHT22;23135;51.078;12.108;2023-02-15T17:05:59;8.00;99.90
37242;DHT22;23135;51.078;12.108;2023-02-15T17:08:28;7.90;99.90
37242;DHT22;23135;51.078;12.108;2023-02-15T17:11:15;7.90;99.90
37242;DHT22;23135;51.078;12.108;2023-02-15T17:16:45;7.80;99.90
37242;DHT22;23135;51.078;12.108;2023-02-15T17:19:20;7.80;99.90
37242;DHT22;23135;51.078;12.108;2023-02-15T17:21:56;7.70;99.90
37242;DHT22;23135;51.078;12.108;2023-02-15T17:24:39;7.70;99.90
37242;DHT22;23135;51.078;12.108;2023-02-15T17:30:26;7.40;99.90
37242;DHT22;23135;51.078;12.108;2023-02-15T17:32:55;7.20;99.90
37242;DHT22;23135;51.078;12.108;2023-02-15T17:35:26;7.00;99.90
37242;DHT22;23135;51.078;12.108;2023-02-15T17:38:01;6.80;99.90
37242;DHT22;23135;51.078;12.108;2023-02-15T17:40:32;6.70;99.90
37242;DHT22;23135;51.078;12.108;2023-02-15T17:42:58;6.50;99.90
37242;DHT22;23135;51.078;12.108;2023-02-15T17:45:36;6.40;99.90
37242;DHT22;23135;51.078;12.108;2023-02-15T17:48:04;6.20;99.90
37242;DHT22;23135;51.078;12.108;2023-02-15T17:50:31;6.10;99.90
37242;DHT22;23135;51.078;12.108;2023-02-15T17:52:57;6.10;99.90
37242;DHT22;23135;51.078;12.108;2023-02-15T17:55:24;6.10;99.90
37242;DHT22;23135;51.078;12.108;2023-02-15T17:58:16;6.10;99.90
37242;DHT22;23135;51.078;12.108;2023-02-15T18:00:49;6.10;99.90
37242;DHT22;23135;51.078;12.108;2023-02-15T18:06:29;6.00;99.90
37242;DHT22;23135;51.078;12.108;2023-02-15T18:09:16;6.00;99.90
37242;DHT22;23135;51.078;12.108;2023-02-15T18:12:01;6.10;99.90
37242;DHT22;23135;51.078;12.108;2023-02-15T18:14:27;5.90;99.90
37242;DHT22;23135;51.078;12.108;2023-02-15T18:16:53;5.80;99.90
37242;DHT22;23135;51.078;12.108;2023-02-15T18:19:24;5.80;99.90
37242;DHT22;23135;51.078;12.108;2023-02-15T18:21:50;5.70;99.90
37242;DHT22;23135;51.078;12.108;2023-02-15T18:24:26;5.70;99.90
37242;DHT22;23135;51.078;12.108;2023-02-15T18:26:53;5.60;99.90
37242;DHT22;23135;51.078;12.108;2023-02-15T18:29:19;5.60;99.90
37242;DHT22;23135;51.078;12.108;2023-02-15T18:31:47;5.70;99.90
37242;DHT22;23135;51.078;12.108;2023-02-15T18:34:34;5.70;99.90
37242;DHT22;23135;51.078;12.108;2023-02-15T18:37:02;5.70;99.90
37242;DHT22;23135;51.078;12.108;2023-02-15T18:39:47;5.60;99.90
37242;DHT22;23135;51.078;12.108;2023-02-15T18:44:46;5.40;99.90
37242;DHT22;23135;51.078;12.108;2023-02-15T18:47:12;5.40;99.90
37242;DHT22;23135;51.078;12.108;2023-02-15T18:49:37;5.40;99.90
37242;DHT22;23135;51.078;12.108;2023-02-15T18:52:03;5.40;99.90
37242;DHT22;23135;51.078;12.108;2023-02-15T18:54:29;5.50;99.90